4°C Temp
0°C Dewpoint
% Humidity
Temperature
13 KM/H
8 MPH
7 KTS
10°
Due North

Wind Speed
Clear
Conditions
Pressure 1028.92 (hPa) - 30.38 (in)
Visibility 6.2 (mi) - 10.0 (km)

Current Conditions
LIME
Location 30(km)
Metar :LIME 270120Z 01007KT CAVOK 04/M00 Q1029 NOSIG
Sun 27th November 02:20 am

Airport
  Metar Aviation API Data Provided by https://www.checkwx.com/ PHP scripts by weather34.com ©2022